This is the latest recevied weather packets stored in our database for station/object OE6ATD-13. If no packets are shown the sender has not sent any weather packets the latest 10 day(s).
| Time | Temp. | Humidity | Pressure | Rain* | Wind** | Luminosity | Snow |
|---|---|---|---|---|---|---|---|
| 1788276026 | 28.33° C | 38% | 1019.7 hPa | 0 mm | - | 179 W/m² | - |
| 1788275419 | 28.33° C | 39% | 1019.7 hPa | 0 mm | - | 272 W/m² | - |
| 1788274830 | 28.33° C | 39% | 1019.7 hPa | 0 mm | - | 331 W/m² | - |
| 1788274234 | 27.78° C | 38% | 1019.7 hPa | 0 mm | - | 266 W/m² | - |
| 1788273622 | 28.89° C | 36% | 1019.7 hPa | 0 mm | - | 340 W/m² | - |
| 1788273017 | 28.89° C | 37% | 1019.8 hPa | 0 mm | - | 344 W/m² | - |
| 1788272445 | 28.89° C | 36% | 1020 hPa | 0 mm | - | 443 W/m² | - |
| 1788271824 | 27.78° C | 40% | 1020 hPa | 0 mm | - | 533 W/m² | - |
| 1788271220 | 27.22° C | 43% | 1020.1 hPa | 0 mm | - | 278 W/m² | - |
| 1788270615 | 27.22° C | 44% | 1020.1 hPa | 0 mm | - | 270 W/m² | - |
| 1788270026 | 26.67° C | 44% | 1020.2 hPa | 0 mm | - | 229 W/m² | - |
| 1788269422 | 27.22° C | 41% | 1020.2 hPa | 0 mm | - | 287 W/m² | - |
| 1788268819 | 27.22° C | 40% | 1020.3 hPa | 0 mm | - | 425 W/m² | - |
| 1788268229 | 27.78° C | 40% | 1020.4 hPa | 0 mm | - | 591 W/m² | - |
| 1788267625 | 27.78° C | 40% | 1020.6 hPa | 0 mm | - | 708 W/m² | - |
| 1788267021 | 27.78° C | 39% | 1020.5 hPa | 0 mm | - | 509 W/m² | - |
| 1788266420 | 27.78° C | 39% | 1020.6 hPa | 0 mm | - | 493 W/m² | - |
| 1788265816 | 27.78° C | 40% | 1020.6 hPa | 0 mm | - | 743 W/m² | - |
| 1788265227 | 27.78° C | 39% | 1020.7 hPa | 0 mm | - | 540 W/m² | - |
| 1788264623 | 27.78° C | 39% | 1020.7 hPa | 0 mm | - | 787 W/m² | - |
| 1788264026 | 27.78° C | 39% | 1020.7 hPa | 0 mm | - | 805 W/m² | - |
| 1788263429 | 27.78° C | 40% | 1020.8 hPa | 0 mm | - | 814 W/m² | - |
| 1788262825 | 27.22° C | 41% | 1020.9 hPa | 0 mm | - | 638 W/m² | - |
| 1788262221 | 27.22° C | 41% | 1021 hPa | 0 mm | - | 853 W/m² | - |
| 1788261617 | 27.22° C | 42% | 1021.1 hPa | 0 mm | - | 843 W/m² | - |
* Rain latest hour (hover to see other rain measurements)
** Current wind speed in m/s (hover to see current wind gust speed)